EDT,Max TemperatureF,Mean TemperatureF,Min TemperatureF,Max Dew PointF,MeanDew PointF,Min DewpointF,Max Humidity, Mean Humidity, Min Humidity, Max Sea Level PressureIn, Mean Sea Level PressureIn, Min Sea Level PressureIn, Max VisibilityMiles, Mean VisibilityMiles, Min VisibilityMiles, Max Wind SpeedMPH, Mean Wind SpeedMPH, Max Gust SpeedMPH,PrecipitationIn, CloudCover, Events, WindDirDegrees
2013-8-1,80,72,65,66,58,48,90,67,33,29.95,29.93,29.90,10,10,7,14,7,22,0.00,4,Rain,285
2013-8-2,77,68,59,64,57,52,83,67,43,29.97,29.93,29.88,10,10,10,17,7,25,0.00,3,,245
2013-8-3,79,70,61,64,54,45,88,58,30,30.09,30.01,29.92,10,10,10,14,5,17,0.00,2,,319
2013-8-4,74,66,58,56,52,46,82,61,42,30.18,30.15,30.09,10,10,7,14,5,20,0.00,2,,349
2013-8-5,74,66,59,56,49,44,69,53,37,30.16,30.10,30.02,10,10,10,9,2,9,0.00,5,,195
2013-8-6,80,72,64,68,62,57,92,73,54,30.02,29.98,29.93,10,9,4,14,3,20,0.00,7,Rain,187
2013-8-7,84,76,68,71,66,62,88,74,56,29.95,29.90,29.86,10,10,5,16,6,26,0.00,3,Rain,222
2013-8-8,78,72,66,68,62,54,86,73,55,30.05,30.00,29.93,10,10,10,15,5,16,0.00,4,,26
2013-8-9,83,73,63,58,54,48,79,55,32,30.04,30.00,29.98,10,10,5,13,4,23,0.00,0,,315
2013-8-10,77,70,64,60,55,50,82,60,40,30.17,30.13,30.05,10,10,10,13,5,,0.00,4,,28
2013-8-11,80,71,62,60,54,51,74,56,37,30.16,30.13,30.07,10,10,7,12,2,16,0.00,6,,276
2013-8-12,72,68,65,67,62,56,93,80,61,30.09,30.00,29.88,10,9,2,10,2,,0.00,7,Rain,236
2013-8-13,68,63,57,66,51,42,93,65,41,30.07,29.97,29.85,10,10,4,16,8,24,0.00,5,,322
2013-8-14,72,62,52,51,47,43,83,59,37,30.18,30.15,30.08,10,10,7,13,7,17,0.00,3,,321
2013-8-15,75,64,53,51,47,41,86,53,31,30.20,30.17,30.13,10,10,10,9,4,,0.00,2,,265
2013-8-16,79,68,57,55,51,46,84,55,32,30.25,30.19,30.15,10,10,10,9,3,,0.00,2,,48
2013-8-17,80,68,57,57,52,43,85,57,26,30.31,30.27,30.23,10,10,10,10,2,16,0.00,0,,92
2013-8-18,83,72,61,63,56,48,87,60,30,30.26,30.21,30.15,10,10,5,10,2,,0.00,1,,86
2013-8-19,84,74,63,59,54,35,80,52,17,30.16,30.12,30.08,10,10,10,12,2,17,0.00,1,,240
2013-8-20,88,77,66,63,59,54,79,55,32,30.18,30.14,30.10,10,10,5,10,4,20,0.00,1,,238
2013-8-21,88,78,69,66,64,60,81,61,39,30.18,30.12,30.03,10,10,7,14,5,18,0.00,1,,216
2013-8-22,84,78,72,67,64,60,81,62,43,30.08,30.05,29.99,10,10,10,12,6,16,0.00,1,,279
2013-8-23,83,74,64,63,52,42,74,51,24,30.25,30.16,30.08,10,10,10,13,6,18,0.00,0,,20
2013-8-24,82,71,60,62,55,50,88,60,33,30.35,30.31,30.25,10,10,10,8,2,,0.00,1,,128
2013-8-25,89,75,61,61,57,51,85,56,28,30.34,30.27,30.18,10,10,10,14,4,20,0.00,0,,231
2013-8-26,90,80,70,71,64,60,71,57,43,30.19,30.10,30.01,10,10,10,15,8,21,0.00,2,,252
2013-8-27,83,78,72,76,71,68,94,80,65,30.02,29.97,29.88,10,9,2,17,5,32,0.00,5,Rain,235
2013-8-28,84,78,73,74,70,66,94,78,54,30.05,29.92,29.82,10,9,3,14,6,17,0.00,5,Rain,359
2013-8-29,88,78,68,70,66,62,87,69,45,30.11,30.07,30.05,10,10,7,7,3,,0.00,2,,44
2013-8-30,89,80,70,72,67,62,94,68,40,30.05,29.92,29.79,10,8,1,17,5,25,0.00,1,Rain,223
2013-8-31,80,75,70,71,67,63,93,78,59,29.89,29.85,29.79,10,9,3,10,5,,0.00,7,,17